Terminal Aerodrome Forecast
Issued by NWS

Home | Current Version | Previous Version | Text Only | Print | Product List | Glossary On
Versions: 1 2 3 4 5 6 7 8 9 10 11 12 13 14 15 16 17 18 19 20 21 22 23 24 25 26 27 28 29 30
000
FTUS41 KRNK 022326
TAFBCB
TAF
KBCB 022326Z 0300/0324 00000KT P6SM VCSH SCT040 OVC100
      TEMPO 0300/0302 VRB20G30KT 5SM -SHRA BKN040
     FM030200 VRB03KT P6SM -SHRA VCTS BKN050CB
     FM030700 00000KT 4SM BR SCT050
      TEMPO 0308/0312 2SM BR
     FM031400 27005KT P6SM SCT050=

USA.gov is the U.S. government's official web portal to all federal, state and local government web resources and services.